createdAt,value
2019-03-03T00:01:42.225Z,31.87
2019-03-03T00:04:06.654Z,35.87
2019-03-03T00:06:31.064Z,34.13
2019-03-03T00:08:55.497Z,33.20
2019-03-03T00:11:19.918Z,37.10
2019-03-03T00:13:44.346Z,31.47
2019-03-03T00:16:08.766Z,31.33
2019-03-03T00:18:33.210Z,33.67
2019-03-03T00:20:57.616Z,32.00
2019-03-03T00:23:22.124Z,30.60
2019-03-03T00:25:46.669Z,33.80
2019-03-03T00:28:11.097Z,32.30
2019-03-03T00:30:35.691Z,32.27
2019-03-03T00:33:00.095Z,35.67
2019-03-03T00:35:24.524Z,28.07
2019-03-03T00:37:50.547Z,31.00
2019-03-03T00:40:25.414Z,37.37
2019-03-03T00:42:51.450Z,34.83
2019-03-03T00:45:17.520Z,33.93
2019-03-03T00:47:46.276Z,33.13
2019-03-03T00:50:12.407Z,35.03
2019-03-03T00:52:50.696Z,36.33
2019-03-03T00:55:33.218Z,29.37
2019-03-03T00:57:59.331Z,31.33
2019-03-03T01:00:29.889Z,34.07
2019-03-03T01:03:12.159Z,34.50
2019-03-03T01:05:38.249Z,31.47
2019-03-03T01:08:04.381Z,32.93
2019-03-03T01:10:46.349Z,30.77
2019-03-03T01:13:12.555Z,26.83
2019-03-03T01:15:38.776Z,30.47
2019-03-03T01:18:10.673Z,31.30
2019-03-03T01:20:55.006Z,30.27
2019-03-03T01:23:33.044Z,25.13
2019-03-03T01:25:57.493Z,28.87
2019-03-03T01:28:21.971Z,28.57
2019-03-03T01:30:46.460Z,27.53
2019-03-03T01:33:10.990Z,27.90
2019-03-03T01:35:35.468Z,29.40
2019-03-03T01:37:59.925Z,31.00
2019-03-03T01:40:24.383Z,26.53
2019-03-03T01:42:48.889Z,27.40
2019-03-03T01:45:15.482Z,29.27
2019-03-03T01:47:40.071Z,27.23
2019-03-03T01:50:07.472Z,26.83
2019-03-03T01:52:31.919Z,26.83
2019-03-03T01:54:56.374Z,27.50
2019-03-03T01:57:20.793Z,26.63
2019-03-03T01:59:45.251Z,27.37
2019-03-03T02:02:09.663Z,27.50
2019-03-03T02:04:34.116Z,27.93
2019-03-03T02:06:58.539Z,27.90
2019-03-03T02:09:22.995Z,26.63
2019-03-03T02:11:47.479Z,23.27
2019-03-03T02:14:12.026Z,23.57
2019-03-03T02:16:36.498Z,27.50
2019-03-03T02:19:00.927Z,23.63
2019-03-03T02:21:25.421Z,18.87
2019-03-03T02:23:49.849Z,18.00
2019-03-03T02:26:14.400Z,22.17
2019-03-03T02:28:38.816Z,19.37
2019-03-03T02:31:03.273Z,17.83
2019-03-03T02:33:27.778Z,20.13
2019-03-03T02:35:52.366Z,15.70
2019-03-03T02:38:16.928Z,17.83
2019-03-03T02:40:41.371Z,13.63
2019-03-03T02:43:05.862Z,14.33
2019-03-03T02:45:30.439Z,15.67
2019-03-03T02:47:54.919Z,14.43
2019-03-03T02:50:19.595Z,16.20
2019-03-03T02:52:44.229Z,13.80
2019-03-03T02:55:13.634Z,12.30
2019-03-03T02:57:38.129Z,15.50
2019-03-03T03:00:02.677Z,12.13
2019-03-03T03:02:44.058Z,16.37
2019-03-03T03:05:08.605Z,10.90
2019-03-03T03:07:34.743Z,10.90
2019-03-03T03:10:06.382Z,15.93
2019-03-03T03:12:38.640Z,11.43
2019-03-03T03:15:05.021Z,12.17
2019-03-03T03:17:31.116Z,11.60
2019-03-03T03:20:07.608Z,13.13
2019-03-03T03:22:39.553Z,11.40
2019-03-03T03:25:27.398Z,11.23
2019-03-03T03:27:58.637Z,10.37
2019-03-03T03:30:38.465Z,11.50
2019-03-03T03:33:07.661Z,12.13
2019-03-03T03:35:40.973Z,12.13
2019-03-03T03:38:08.596Z,13.03
2019-03-03T03:40:34.732Z,9.80
2019-03-03T03:43:02.069Z,12.87
2019-03-03T03:45:28.147Z,16.20
2019-03-03T03:48:10.164Z,11.93
2019-03-03T03:50:51.439Z,14.90
2019-03-03T03:53:23.598Z,10.40
2019-03-03T03:55:57.421Z,12.47
2019-03-03T03:58:23.474Z,16.67
2019-03-03T04:00:49.644Z,14.00
2019-03-03T04:03:31.784Z,11.80
2019-03-03T04:06:03.800Z,9.90
2019-03-03T04:08:29.946Z,15.87
2019-03-03T04:11:10.695Z,14.87
2019-03-03T04:13:45.761Z,14.13
2019-03-03T04:16:14.821Z,12.00
2019-03-03T04:18:58.824Z,15.03
2019-03-03T04:21:33.905Z,14.27
2019-03-03T04:24:02.628Z,14.30
2019-03-03T04:26:34.750Z,13.50
2019-03-03T04:29:16.820Z,15.77
2019-03-03T04:31:59.237Z,13.73
2019-03-03T04:34:25.276Z,11.97
2019-03-03T04:36:51.467Z,8.67
2019-03-03T04:39:17.525Z,12.90
2019-03-03T04:41:43.597Z,12.00
2019-03-03T04:44:09.660Z,15.13
2019-03-03T04:46:50.747Z,15.23
2019-03-03T04:49:25.615Z,11.10
2019-03-03T04:51:54.474Z,10.80
2019-03-03T04:54:20.868Z,12.50
2019-03-03T04:56:47.093Z,11.33
2019-03-03T04:59:31.227Z,12.83
2019-03-03T05:02:12.526Z,10.37
2019-03-03T05:04:41.130Z,13.90
2019-03-03T05:07:07.232Z,8.80
2019-03-03T05:09:35.876Z,12.57
2019-03-03T05:12:11.132Z,14.13
2019-03-03T05:14:37.297Z,11.97
2019-03-03T05:17:03.427Z,11.90
2019-03-03T05:19:27.922Z,11.93
2019-03-03T05:21:52.321Z,10.63
2019-03-03T05:24:16.781Z,10.33
2019-03-03T05:26:41.200Z,8.77
2019-03-03T05:29:05.649Z,9.23
2019-03-03T05:31:30.077Z,7.87
2019-03-03T05:33:54.524Z,10.47
2019-03-03T05:36:19.011Z,12.47
2019-03-03T05:38:43.427Z,11.87
2019-03-03T05:41:08.069Z,11.47
2019-03-03T05:43:32.458Z,10.33
2019-03-03T05:45:56.935Z,8.47
2019-03-03T05:48:22.957Z,7.37
2019-03-03T05:50:47.403Z,11.53
2019-03-03T05:53:11.832Z,11.70
2019-03-03T05:55:36.343Z,9.23
2019-03-03T05:58:00.764Z,9.90
2019-03-03T06:00:25.282Z,7.20
2019-03-03T06:02:49.704Z,7.40
2019-03-03T06:05:14.292Z,8.00
2019-03-03T06:07:38.788Z,8.63
2019-03-03T06:10:04.088Z,8.27
2019-03-03T06:12:28.554Z,6.60
2019-03-03T06:14:52.957Z,8.33
2019-03-03T06:17:17.419Z,10.60
2019-03-03T06:19:41.815Z,7.20
2019-03-03T06:22:06.254Z,7.53
2019-03-03T06:24:30.657Z,8.73
2019-03-03T06:26:55.446Z,7.70
2019-03-03T06:29:19.856Z,8.50
2019-03-03T06:31:44.455Z,4.80
2019-03-03T06:34:08.863Z,6.20
2019-03-03T06:36:33.292Z,7.60
2019-03-03T06:38:57.692Z,8.63
2019-03-03T06:41:22.120Z,6.57
2019-03-03T06:43:46.522Z,6.77
2019-03-03T06:46:10.948Z,7.63
2019-03-03T06:48:35.438Z,7.40
2019-03-03T06:50:59.834Z,7.93
2019-03-03T06:53:24.330Z,11.80
2019-03-03T06:55:48.732Z,10.03
2019-03-03T06:58:13.169Z,8.10
2019-03-03T07:00:37.590Z,8.73
2019-03-03T07:03:02.108Z,5.30
2019-03-03T07:05:26.586Z,9.30
2019-03-03T07:07:51.008Z,7.27
2019-03-03T07:10:15.494Z,7.60
2019-03-03T07:12:39.987Z,7.00
2019-03-03T07:15:06.961Z,10.73
2019-03-03T07:17:31.367Z,9.83
2019-03-03T07:19:55.776Z,11.37
2019-03-03T07:22:20.171Z,6.97
2019-03-03T07:24:44.596Z,6.67
2019-03-03T07:27:09.003Z,11.40
2019-03-03T07:29:33.438Z,8.60
2019-03-03T07:31:57.822Z,6.90
2019-03-03T07:34:22.251Z,14.07
2019-03-03T07:36:46.656Z,10.83
2019-03-03T07:39:16.936Z,7.63
2019-03-03T07:41:41.420Z,13.50
2019-03-03T07:44:05.915Z,9.17
2019-03-03T07:46:30.334Z,8.77
2019-03-03T07:48:54.740Z,8.23
2019-03-03T07:51:19.244Z,8.13
2019-03-03T07:53:43.648Z,9.43
2019-03-03T07:56:08.082Z,8.00
2019-03-03T07:58:32.495Z,10.70
2019-03-03T08:00:56.918Z,9.13
2019-03-03T08:03:21.318Z,10.80
2019-03-03T08:05:45.821Z,10.80
2019-03-03T08:08:10.234Z,10.43
2019-03-03T08:10:34.663Z,9.70
2019-03-03T08:13:08.723Z,14.90
2019-03-03T08:15:25.187Z,9.07
2019-03-03T08:17:49.581Z,13.90
2019-03-03T08:20:15.360Z,8.57
2019-03-03T08:22:39.824Z,7.53
2019-03-03T08:25:04.981Z,10.67
2019-03-03T08:27:29.455Z,10.83
2019-03-03T08:29:53.951Z,9.67
2019-03-03T08:32:18.372Z,12.63
2019-03-03T08:34:42.800Z,13.03
2019-03-03T08:37:07.241Z,9.03
2019-03-03T08:39:31.658Z,9.93
2019-03-03T08:41:57.714Z,11.70
2019-03-03T08:44:23.109Z,10.43
2019-03-03T08:46:49.193Z,13.63
2019-03-03T08:49:15.220Z,6.63
2019-03-03T08:51:44.216Z,7.43
2019-03-03T08:54:22.474Z,10.43
2019-03-03T08:57:04.480Z,9.23
2019-03-03T08:59:33.219Z,8.83
2019-03-03T09:02:08.266Z,8.30
2019-03-03T09:04:50.665Z,9.43
2019-03-03T09:07:19.431Z,6.10
2019-03-03T09:09:45.490Z,8.00
2019-03-03T09:12:26.713Z,9.20
2019-03-03T09:15:09.192Z,7.17
2019-03-03T09:17:53.475Z,7.23
2019-03-03T09:20:35.615Z,9.73
2019-03-03T09:23:04.506Z,10.53
2019-03-03T09:25:42.473Z,8.97
2019-03-03T09:28:17.394Z,9.87
2019-03-03T09:30:46.190Z,9.17
2019-03-03T09:33:12.260Z,10.77
2019-03-03T09:35:52.748Z,8.03
2019-03-03T09:38:18.826Z,9.20
2019-03-03T09:40:44.879Z,9.20
2019-03-03T09:43:13.733Z,9.60
2019-03-03T09:45:39.870Z,12.13
2019-03-03T09:48:08.733Z,9.93
2019-03-03T09:50:37.734Z,7.20
2019-03-03T09:53:22.191Z,7.67
2019-03-03T09:55:54.238Z,8.53
2019-03-03T09:58:29.160Z,14.57
2019-03-03T10:01:11.329Z,9.40
2019-03-03T10:03:46.041Z,7.30
2019-03-03T10:06:12.753Z,11.50
2019-03-03T10:08:51.029Z,8.90
2019-03-03T10:11:20.031Z,13.87
2019-03-03T10:13:46.142Z,8.43
2019-03-03T10:16:21.207Z,8.17
2019-03-03T10:18:47.247Z,8.93
2019-03-03T10:21:29.514Z,8.20
2019-03-03T10:24:10.650Z,8.27
2019-03-03T10:26:42.673Z,7.13
2019-03-03T10:29:11.537Z,8.17
2019-03-03T10:31:54.192Z,7.47
2019-03-03T10:34:20.227Z,6.93
2019-03-03T10:36:55.572Z,7.77
2019-03-03T10:39:24.544Z,7.20
2019-03-03T10:42:02.863Z,10.60
2019-03-03T10:44:28.945Z,7.47
2019-03-03T10:47:11.529Z,8.40
2019-03-03T10:49:40.614Z,9.27
2019-03-03T10:52:13.018Z,7.13
2019-03-03T10:54:45.006Z,7.80
2019-03-03T10:57:30.411Z,6.93
2019-03-03T10:59:56.585Z,12.77
2019-03-03T11:02:40.483Z,5.03
2019-03-03T11:05:18.650Z,16.57
2019-03-03T11:07:44.888Z,10.93
2019-03-03T11:10:20.695Z,14.27
2019-03-03T11:12:49.590Z,10.43
2019-03-03T11:15:28.828Z,11.00
2019-03-03T11:18:07.240Z,9.33
2019-03-03T11:20:51.312Z,12.53
2019-03-03T11:23:20.146Z,9.13
2019-03-03T11:25:46.198Z,9.37
2019-03-03T11:28:27.711Z,6.13
2019-03-03T11:30:59.862Z,6.30
2019-03-03T11:33:42.108Z,7.60
2019-03-03T11:36:14.186Z,6.47
2019-03-03T11:38:46.191Z,7.63
2019-03-03T11:41:12.227Z,7.43
2019-03-03T11:43:44.131Z,5.60
2019-03-03T11:46:22.244Z,6.73
2019-03-03T11:49:04.681Z,6.87
2019-03-03T11:51:33.703Z,7.73
2019-03-03T11:54:05.801Z,6.97
2019-03-03T11:56:32.003Z,8.30
2019-03-03T11:59:06.869Z,7.17
2019-03-03T12:01:49.128Z,6.47
2019-03-03T12:04:15.200Z,6.93
2019-03-03T12:06:53.425Z,7.37
2019-03-03T12:09:28.782Z,6.83
2019-03-03T12:12:11.222Z,9.50
2019-03-03T12:14:46.612Z,5.30
2019-03-03T12:17:12.805Z,7.60
2019-03-03T12:19:38.877Z,4.30
2019-03-03T12:22:12.611Z,6.47
2019-03-03T12:24:39.374Z,4.43
2019-03-03T12:27:14.803Z,3.93
2019-03-03T12:29:40.895Z,4.10
2019-03-03T12:32:19.132Z,4.37
2019-03-03T12:34:48.405Z,3.80
2019-03-03T12:37:16.098Z,3.63
2019-03-03T12:39:42.173Z,5.40
2019-03-03T12:42:17.118Z,4.93
2019-03-03T12:44:43.176Z,3.00
2019-03-03T12:47:21.503Z,5.47
2019-03-03T12:50:02.584Z,3.93
2019-03-03T12:52:45.309Z,4.37
2019-03-03T12:55:20.413Z,4.53
2019-03-03T12:57:49.233Z,2.80
2019-03-03T13:00:27.408Z,3.00
2019-03-03T13:03:09.777Z,3.27
2019-03-03T13:05:44.958Z,3.37
2019-03-03T13:08:30.890Z,3.77
2019-03-03T13:11:02.973Z,3.77
2019-03-03T13:13:33.708Z,2.83
2019-03-03T13:16:26.184Z,3.10
2019-03-03T13:19:01.170Z,3.23
2019-03-03T13:22:30.775Z,4.00
2019-03-03T13:24:25.147Z,4.93
2019-03-03T13:27:18.839Z,4.00
2019-03-03T13:30:53.796Z,3.93
2019-03-03T13:32:52.683Z,3.40
2019-03-03T13:35:30.861Z,5.03
2019-03-03T13:38:11.309Z,4.07
2019-03-03T13:40:42.539Z,3.47
2019-03-03T13:43:11.549Z,2.83
2019-03-03T13:45:39.214Z,3.37
2019-03-03T13:48:05.418Z,5.57
2019-03-03T13:50:33.338Z,4.47
2019-03-03T13:52:58.050Z,4.50
2019-03-03T13:55:22.668Z,4.77
2019-03-03T13:57:48.887Z,4.23
2019-03-03T14:00:22.203Z,4.03
2019-03-03T14:02:46.605Z,7.97
2019-03-03T14:05:11.295Z,4.50
2019-03-03T14:07:37.502Z,5.70
2019-03-03T14:10:02.097Z,5.27
2019-03-03T14:12:26.574Z,4.83
2019-03-03T14:14:51.125Z,3.00
2019-03-03T14:17:22.515Z,5.20
2019-03-03T14:19:43.536Z,7.13
2019-03-03T14:22:08.254Z,4.07
2019-03-03T14:24:34.519Z,8.57
2019-03-03T14:26:59.043Z,5.70
2019-03-03T14:29:23.658Z,4.60
2019-03-03T14:31:48.156Z,4.13
2019-03-03T14:34:12.576Z,4.20
2019-03-03T14:36:38.706Z,3.53
2019-03-03T14:39:27.570Z,3.10
2019-03-03T14:41:57.058Z,3.87
2019-03-03T14:44:32.882Z,4.03
2019-03-03T14:47:58.847Z,4.17
2019-03-03T14:55:26.028Z,4.20
2019-03-03T14:56:29.833Z,4.33
2019-03-03T14:58:06.621Z,3.90
2019-03-03T15:00:51.597Z,3.47
2019-03-03T15:03:23.362Z,3.20
2019-03-03T15:05:43.455Z,3.07
2019-03-03T15:08:19.810Z,3.60
2019-03-03T15:11:16.064Z,2.50
2019-03-03T15:16:10.240Z,2.77
2019-03-03T15:18:38.020Z,3.37
2019-03-03T15:21:24.540Z,3.60
2019-03-03T15:23:59.357Z,3.00
2019-03-03T15:26:31.204Z,6.30
2019-03-03T15:29:06.537Z,2.70
2019-03-03T15:31:37.429Z,2.73
2019-03-03T15:34:01.898Z,2.70
2019-03-03T15:36:30.896Z,4.50
2019-03-03T15:39:01.287Z,2.87
2019-03-03T15:41:36.326Z,3.30
2019-03-03T15:47:10.278Z,2.27
2019-03-03T15:49:52.626Z,3.77
2019-03-03T15:52:24.834Z,2.83
2019-03-03T15:55:03.436Z,2.97
2019-03-03T15:59:22.762Z,3.77
2019-03-03T16:06:26.192Z,4.60
2019-03-03T16:08:52.437Z,3.97
2019-03-03T16:11:18.241Z,4.47
2019-03-03T16:13:44.340Z,4.20
2019-03-03T16:16:10.904Z,4.07
2019-03-03T16:18:43.161Z,3.30
2019-03-03T16:21:11.511Z,3.20
2019-03-03T16:23:39.229Z,4.13
2019-03-03T16:26:05.279Z,3.13
2019-03-03T16:28:32.585Z,3.80
2019-03-03T16:31:01.579Z,3.73
2019-03-03T16:33:26.098Z,3.87
2019-03-03T16:35:50.596Z,9.23
2019-03-03T16:38:19.860Z,3.97
2019-03-03T16:40:46.102Z,3.57
2019-03-03T16:43:10.732Z,3.80
2019-03-03T16:45:35.503Z,3.93
2019-03-03T16:48:00.020Z,3.17
2019-03-03T16:50:24.938Z,3.17
2019-03-03T16:52:56.836Z,3.20
2019-03-03T16:55:22.100Z,2.70
2019-03-03T16:57:48.381Z,3.73
2019-03-03T17:00:15.947Z,5.13
2019-03-03T17:02:40.668Z,15.17
2019-03-03T17:05:08.141Z,3.30
2019-03-03T17:07:37.447Z,3.97
2019-03-03T17:10:00.223Z,4.33
2019-03-03T17:12:27.667Z,4.80
2019-03-03T17:14:53.779Z,5.17
2019-03-03T17:17:21.275Z,3.30
2019-03-03T17:19:49.196Z,4.60
2019-03-03T17:22:19.435Z,5.20
2019-03-03T17:24:44.169Z,3.47
2019-03-03T17:27:10.338Z,5.57
2019-03-03T17:29:41.721Z,4.20
2019-03-03T17:32:08.714Z,3.97
2019-03-03T17:34:34.768Z,4.83
2019-03-03T17:36:59.295Z,3.90
2019-03-03T17:39:34.132Z,3.60
2019-03-03T17:41:56.467Z,6.47
2019-03-03T17:44:24.553Z,5.93
2019-03-03T17:46:49.176Z,4.93
2019-03-03T17:49:15.189Z,4.17
2019-03-03T17:51:39.578Z,3.87
2019-03-03T17:54:04.149Z,4.27
2019-03-03T17:56:30.296Z,5.13
2019-03-03T17:58:54.779Z,4.50
2019-03-03T18:01:24.787Z,5.40
2019-03-03T18:03:49.527Z,6.70
2019-03-03T18:06:15.840Z,6.90
2019-03-03T18:08:41.995Z,5.10
2019-03-03T18:11:12.548Z,5.90
2019-03-03T18:13:38.585Z,6.53
2019-03-03T18:16:06.733Z,6.80
2019-03-03T18:18:34.203Z,5.87
2019-03-03T18:20:58.739Z,5.27
2019-03-03T18:23:25.585Z,8.57
2019-03-03T18:25:50.139Z,7.07
2019-03-03T18:28:16.352Z,6.43
2019-03-03T18:30:42.613Z,8.10
2019-03-03T18:33:09.588Z,7.93
2019-03-03T18:35:33.334Z,6.97
2019-03-03T18:37:59.477Z,6.33
2019-03-03T18:40:28.931Z,5.67
2019-03-03T18:42:57.071Z,5.90
2019-03-03T18:45:25.308Z,6.13
2019-03-03T18:47:49.603Z,6.63
2019-03-03T18:50:19.994Z,6.47
2019-03-03T18:52:44.497Z,6.20
2019-03-03T18:55:11.389Z,5.60
2019-03-03T18:57:36.124Z,7.40
2019-03-03T19:00:00.620Z,6.30
2019-03-03T19:02:26.963Z,8.30
2019-03-03T19:04:51.511Z,7.80
2019-03-03T19:07:20.421Z,5.80
2019-03-03T19:09:44.853Z,4.13
2019-03-03T19:12:09.460Z,7.90
2019-03-03T19:14:36.077Z,5.30
2019-03-03T19:17:02.364Z,3.93
2019-03-03T19:19:54.529Z,5.77
2019-03-03T19:21:57.611Z,5.07
2019-03-03T19:24:23.901Z,6.27
2019-03-03T19:26:48.505Z,7.90
2019-03-03T19:29:18.690Z,12.97
2019-03-03T19:31:43.394Z,4.83
2019-03-03T19:34:12.458Z,6.60
2019-03-03T19:36:38.405Z,5.20
2019-03-03T19:39:13.816Z,5.77
2019-03-03T19:41:40.079Z,6.53
2019-03-03T19:44:05.928Z,9.63
2019-03-03T19:46:30.395Z,4.73
2019-03-03T19:49:04.214Z,8.50
2019-03-03T19:51:37.015Z,8.93
2019-03-03T19:54:07.249Z,7.77
2019-03-03T19:56:31.866Z,19.47
2019-03-03T19:58:56.452Z,7.67
2019-03-03T20:01:22.339Z,10.83
2019-03-03T20:03:47.046Z,7.13
2019-03-03T20:06:14.479Z,9.10
2019-03-03T20:08:40.829Z,9.93
2019-03-03T20:11:08.686Z,10.13
2019-03-03T20:13:33.304Z,7.17
2019-03-03T20:16:03.270Z,6.73
2019-03-03T20:18:29.565Z,4.87
2019-03-03T20:20:54.340Z,7.30
2019-03-03T20:23:20.677Z,6.93
2019-03-03T20:25:45.262Z,7.93
2019-03-03T20:28:11.492Z,7.63
2019-03-03T20:30:44.104Z,5.90
2019-03-03T20:33:08.980Z,8.23
2019-03-03T20:35:34.055Z,11.10
2019-03-03T20:38:04.316Z,7.10
2019-03-03T20:40:28.786Z,10.43
2019-03-03T20:43:08.249Z,8.33
2019-03-03T20:45:29.972Z,7.47
2019-03-03T20:48:03.484Z,9.87
2019-03-03T20:50:41.609Z,8.03
2019-03-03T20:53:03.126Z,6.33
2019-03-03T20:55:31.977Z,7.43
2019-03-03T20:57:58.148Z,7.53
2019-03-03T21:00:32.060Z,6.70
2019-03-03T21:02:56.823Z,8.67
2019-03-03T21:05:28.470Z,7.77
2019-03-03T21:07:59.223Z,8.67
2019-03-03T21:10:26.766Z,9.07
2019-03-03T21:12:51.229Z,9.87
2019-03-03T21:15:15.821Z,10.47
2019-03-03T21:17:40.692Z,9.73
2019-03-03T21:20:11.495Z,7.30
2019-03-03T21:22:40.325Z,7.03
2019-03-03T21:25:06.582Z,7.63
2019-03-03T21:27:31.172Z,8.60
2019-03-03T21:29:55.687Z,8.20
2019-03-03T21:32:21.558Z,7.97
2019-03-03T21:34:47.814Z,9.63
2019-03-03T21:37:12.943Z,6.27
2019-03-03T21:39:37.532Z,8.37
2019-03-03T21:42:01.952Z,9.93
2019-03-03T21:44:26.581Z,10.20
2019-03-03T21:46:51.790Z,9.13
2019-03-03T21:49:16.457Z,8.47
2019-03-03T21:51:41.050Z,7.97
2019-03-03T21:54:05.634Z,8.70
2019-03-03T21:56:30.138Z,7.83
2019-03-03T21:58:54.608Z,9.07
2019-03-03T22:01:20.729Z,9.80
2019-03-03T22:03:51.813Z,7.40
2019-03-03T22:06:15.055Z,7.80
2019-03-03T22:08:39.553Z,7.60
2019-03-03T22:11:06.988Z,6.83
2019-03-03T22:13:30.760Z,8.10
2019-03-03T22:15:57.028Z,13.87
2019-03-03T22:18:21.548Z,6.77
2019-03-03T22:20:46.470Z,8.83
2019-03-03T22:23:10.883Z,6.83
2019-03-03T22:25:35.569Z,7.00
2019-03-03T22:28:03.237Z,7.00
2019-03-03T22:30:29.094Z,7.63
2019-03-03T22:33:03.289Z,8.40
2019-03-03T22:35:28.357Z,11.27
2019-03-03T22:37:56.985Z,4.47
2019-03-03T22:40:23.014Z,8.80
2019-03-03T22:42:50.342Z,9.03
2019-03-03T22:45:18.384Z,7.50
2019-03-03T22:47:45.472Z,8.77
2019-03-03T22:50:15.303Z,7.70
2019-03-03T22:52:42.233Z,7.67
2019-03-03T22:55:09.239Z,8.07
2019-03-03T22:57:34.323Z,7.47
2019-03-03T22:59:59.268Z,8.23
2019-03-03T23:02:24.082Z,9.87
2019-03-03T23:05:00.107Z,9.13
2019-03-03T23:07:30.383Z,10.40
2019-03-03T23:10:04.221Z,7.87
2019-03-03T23:12:34.763Z,7.67
2019-03-03T23:15:02.340Z,10.70
2019-03-03T23:17:45.271Z,11.33
2019-03-03T23:20:21.763Z,8.73
2019-03-03T23:22:58.016Z,8.40
2019-03-03T23:25:28.140Z,13.27
2019-03-03T23:27:52.555Z,13.43
2019-03-03T23:30:24.260Z,9.17
2019-03-03T23:32:44.236Z,9.30
2019-03-03T23:35:09.162Z,12.10
2019-03-03T23:37:33.745Z,9.80
2019-03-03T23:40:01.064Z,9.43
2019-03-03T23:42:25.539Z,11.83
2019-03-03T23:44:49.964Z,8.27
2019-03-03T23:47:14.476Z,7.87
2019-03-03T23:49:38.952Z,9.67
2019-03-03T23:52:03.359Z,7.77
2019-03-03T23:54:28.563Z,9.87
2019-03-03T23:56:52.971Z,14.53
2019-03-03T23:59:17.423Z,10.93
